Time;durP1;ratioP1;P1;durP2;ratioP2;P2;SDS_P1;SDS_P2;PMS_P1;PMS_P2;Temp;Humidity;BMP_temperature;BMP_pressure;BME280_temperature;BME280_humidity;BME280_pressure;Samples;Min_cycle;Max_cycle;Signal;HPM_P1;HPM_P2
2022/06/05 00:02:22;;;;;;;124.07;50.55;;;;;;;27.46;69.92;97295.91;4945954;28;20059;-68
2022/06/05 00:05:21;;;;;;;;;;;;;;;27.45;67.34;97294.28;4946546;28;20059;-68
2022/06/05 00:08:28;;;;;;;124.38;53.53;;;;;;;27.46;69.22;97290.63;4945481;28;19922;-69
2022/06/05 00:11:24;;;;;;;137.35;56.05;;;;;;;27.43;67.28;97292.63;4945169;28;20142;-68
2022/06/05 00:14:00;;;;;;;133.35;55.80;;;;;;;27.43;69.67;97292.63;4946325;28;20157;-69
2022/06/05 00:16:50;;;;;;;111.75;52.25;;;;;;;27.48;70.15;97296.53;4943442;28;20114;-65
2022/06/05 00:19:40;;;;;;;113.90;53.33;;;;;;;27.48;71.46;97300.00;4944336;28;20121;-68
2022/06/05 00:22:22;;;;;;;125.53;56.80;;;;;;;27.45;69.57;97297.75;4943329;28;20058;-69
2022/06/05 00:25:16;;;;;;;128.15;57.50;;;;;;;27.49;69.96;97296.34;4935352;28;20055;-68
2022/06/05 00:28:35;;;;;;;115.70;56.85;;;;;;;27.52;69.46;97311.03;4937645;28;20047;-69
2022/06/05 00:31:51;;;;;;;129.43;59.08;;;;;;;27.54;71.76;97307.22;4942857;28;20145;-69
2022/06/05 00:34:34;;;;;;;130.73;58.95;;;;;;;27.56;69.67;97310.50;4937327;28;20058;-68
2022/06/05 00:37:26;;;;;;;122.05;56.92;;;;;;;27.59;72.05;97304.84;4940666;28;20126;-68
2022/06/05 00:40:29;;;;;;;132.40;59.97;;;;;;;27.60;69.35;97306.47;4940373;28;20048;-67
2022/06/05 00:43:21;;;;;;;134.35;59.75;;;;;;;27.64;68.90;97313.03;4935446;29;20079;-68
2022/06/05 00:46:15;;;;;;;134.82;61.28;;;;;;;27.67;70.22;97312.66;4934981;28;20050;-67
2022/06/05 00:48:51;;;;;;;140.65;62.15;;;;;;;27.73;68.70;97314.56;4939795;28;20047;-69
2022/06/05 00:51:45;;;;;;;132.85;62.33;;;;;;;27.78;72.47;97314.81;4944213;28;20770;-68
2022/06/05 00:54:21;;;;;;;144.18;61.88;;;;;;;27.79;70.43;97324.38;4947764;28;20059;-67
2022/06/05 00:57:19;;;;;;;127.60;63.30;;;;;;;27.85;68.51;97322.03;4939531;28;20062;-69
2022/06/05 00:59:55;;;;;;;149.20;65.65;;;;;;;27.93;70.97;97324.53;4940800;28;20051;-69
2022/06/05 01:02:54;;;;;;;140.45;65.05;;;;;;;27.97;68.79;97328.44;4934610;28;20083;-69
2022/06/05 01:05:30;;;;;;;142.15;64.93;;;;;;;28.03;68.69;97327.69;4936830;28;20066;-68
2022/06/05 01:08:19;;;;;;;129.63;60.35;;;;;;;28.13;72.25;97334.31;4936866;28;20079;-68
2022/06/05 01:11:19;;;;;;;127.95;64.55;;;;;;;28.19;70.85;97330.09;4938989;28;20039;-68
2022/06/05 01:14:23;;;;;;;134.30;64.25;;;;;;;28.27;71.42;97324.69;4939008;28;20051;-67
2022/06/05 01:17:16;;;;;;;140.07;65.07;;;;;;;28.38;71.64;97334.78;4937113;28;20047;-68
2022/06/05 01:20:12;;;;;;;138.93;63.88;;;;;;;28.47;71.15;97332.81;4940135;28;20432;-68
2022/06/05 01:23:19;;;;;;;147.40;68.05;;;;;;;28.53;67.21;97343.47;4940094;28;20479;-68
2022/06/05 01:26:34;;;;;;;165.05;68.82;;;;;;;28.60;70.37;97353.28;4949079;28;20520;-67
2022/06/05 01:29:37;;;;;;;146.98;67.80;;;;;;;28.70;69.91;97353.78;4937882;28;20118;-68
2022/06/05 01:32:26;;;;;;;157.10;68.00;;;;;;;28.75;68.63;97356.66;4933981;28;20078;-70
2022/06/05 01:35:32;;;;;;;136.65;62.67;;;;;;;28.90;68.42;97366.19;4939458;28;20466;-70
2022/06/05 01:38:56;;;;;;;121.53;58.85;;;;;;;29.07;68.02;97358.75;4939282;28;20166;-69
2022/06/05 01:41:54;;;;;;;130.82;59.47;;;;;;;29.15;61.08;97360.41;4933912;28;20126;-69
2022/06/05 01:44:42;;;;;;;125.68;56.67;;;;;;;29.41;68.11;97365.09;4938287;28;20061;-69
2022/06/05 01:47:36;;;;;;;132.93;56.92;;;;;;;29.58;65.34;97369.03;4943454;28;20047;-69
2022/06/05 01:50:19;;;;;;;118.60;52.58;;;;;;;29.90;61.88;97378.16;4940628;28;20114;-69
2022/06/05 01:53:26;;;;;;;113.57;49.30;;;;;;;30.33;59.54;97384.78;4947234;28;20075;-69
2022/06/05 01:56:16;;;;;;;108.90;49.25;;;;;;;30.88;59.47;97392.63;4947843;28;20438;-69
2022/06/05 01:59:27;;;;;;;127.68;50.45;;;;;;;31.31;59.31;97387.66;4947266;28;20047;-69
2022/06/05 02:02:25;;;;;;;107.88;51.03;;;;;;;31.55;60.00;97395.78;4945415;28;20055;-70
2022/06/05 02:05:20;;;;;;;120.25;52.72;;;;;;;31.79;60.44;97401.47;4945922;28;20062;-69
2022/06/05 02:08:22;;;;;;;128.13;54.08;;;;;;;32.02;59.94;97395.59;4944592;28;20635;-68
2022/06/05 02:11:26;;;;;;;115.97;51.90;;;;;;;32.35;62.07;97396.25;4947844;28;20398;-70
2022/06/05 02:14:15;;;;;;;124.20;53.45;;;;;;;32.47;58.82;97393.72;4946908;28;20133;-67
2022/06/05 02:16:57;;;;;;;106.20;50.25;;;;;;;32.67;57.20;97405.06;4944775;28;20051;-69
2022/06/05 02:19:46;;;;;;;116.38;47.03;;;;;;;33.19;51.95;97408.34;4947317;28;20058;-68
2022/06/05 02:22:41;;;;;;;109.50;44.67;;;;;;;33.42;50.45;97408.53;4945757;28;20055;-68
2022/06/05 02:25:30;;;;;;;96.28;42.33;;;;;;;33.79;55.06;97404.81;4968543;28;20372;-70
2022/06/05 02:28:17;;;;;;;101.93;40.90;;;;;;;33.90;53.75;97407.78;4946786;28;20121;-69
2022/06/05 02:31:34;;;;;;;80.63;34.92;;;;;;;33.92;51.88;97413.72;4947845;28;20109;-68
2022/06/05 02:34:38;;;;;;;90.40;36.08;;;;;;;34.07;54.23;97414.16;4906698;28;95915;-68
2022/06/05 02:37:28;;;;;;;91.60;35.10;;;;;;;34.19;53.43;97417.66;4913372;29;20057;-69
2022/06/05 02:40:35;;;;;;;92.68;34.97;;;;;;;34.49;51.31;97425.69;4914991;29;20079;-70
2022/06/05 02:43:21;;;;;;;85.53;34.30;;;;;;;34.68;48.41;97429.13;4912507;29;20070;-69
2022/06/05 02:46:29;;;;;;;92.82;35.33;;;;;;;34.80;50.68;97422.75;4916844;29;20051;-68
2022/06/05 02:49:29;;;;;;;84.50;32.45;;;;;;;34.88;49.26;97419.75;4910419;29;20110;-69
2022/06/05 02:52:18;;;;;;;75.63;33.20;;;;;;;34.98;47.80;97435.25;4916331;29;20044;-69
2022/06/05 02:55:29;;;;;;;87.53;33.05;;;;;;;35.52;44.65;97438.66;4915675;29;20079;-69
2022/06/05 02:58:18;;;;;;;84.20;32.20;;;;;;;35.70;36.27;97441.16;4906880;29;20131;-69
2022/06/05 03:04:08;;;;;;;90.88;33.45;;;;;;;36.25;38.61;97438.03;4917948;29;20063;-67
2022/06/05 03:06:57;;;;;;;84.00;32.13;;;;;;;36.09;32.71;97444.94;4917344;29;20158;-69
2022/06/05 03:09:45;;;;;;;92.15;33.75;;;;;;;36.36;32.36;97437.16;4919932;29;20059;-69
2022/06/05 03:12:28;;;;;;;82.30;32.35;;;;;;;36.02;30.99;97446.94;4915802;29;20048;-69
2022/06/05 03:15:17;;;;;;;81.07;30.77;;;;;;;36.25;31.58;97448.75;4914286;29;20048;-69
2022/06/05 03:18:06;;;;;;;89.72;32.15;;;;;;;36.31;32.68;97466.59;4916762;29;20059;-68
2022/06/05 03:21:04;;;;;;;114.85;34.58;;;;;;;36.33;35.44;97453.72;4916382;29;20126;-69
2022/06/05 03:23:39;;;;;;;95.82;32.42;;;;;;;36.61;32.90;97453.72;4918997;29;20043;-69
2022/06/05 03:26:27;;;;;;;96.45;32.65;;;;;;;36.80;32.82;97462.38;4913284;29;20048;-68
2022/06/05 03:29:10;;;;;;;103.28;33.05;;;;;;;36.97;35.05;97465.06;4913766;29;20080;-69
2022/06/05 03:32:04;;;;;;;81.75;29.92;;;;;;;37.17;37.22;97460.06;4889158;29;20087;-67
2022/06/05 03:34:46;;;;;;;96.57;33.78;;;;;;;37.17;37.09;97468.13;4906115;28;20060;-67
2022/06/05 03:37:36;;;;;;;90.15;32.72;;;;;;;37.28;37.53;97467.19;4916853;29;20103;-68
2022/06/05 03:40:17;;;;;;;100.45;32.13;;;;;;;37.16;30.70;97471.88;4918545;29;20039;-67
2022/06/05 03:43:07;;;;;;;77.40;26.23;;;;;;;37.41;33.68;97471.44;4916711;29;20134;-67
2022/06/05 03:45:49;;;;;;;;;;;;;;;37.28;31.05;97477.94;4915870;29;20118;-68
2022/06/05 03:48:37;;;;;;;70.70;20.40;;;;;;;37.20;28.25;97474.91;4908828;29;19935;-68
2022/06/05 03:51:23;;;;;;;61.25;18.05;;;;;;;37.03;27.15;97477.56;4915441;29;20108;-68
2022/06/05 03:54:13;;;;;;;53.83;17.25;;;;;;;37.03;28.02;97474.88;4916675;29;20075;-68
2022/06/05 03:57:02;;;;;;;71.03;16.83;;;;;;;37.64;29.22;97481.19;4914202;29;20134;-68
2022/06/05 03:59:45;;;;;;;;;;;;;;;37.98;32.89;97471.97;4918517;29;20052;-69
2022/06/05 04:02:34;;;;;;;58.72;16.73;;;;;;;37.93;28.02;97482.66;4920407;29;20018;-69
2022/06/05 04:05:27;;;;;;;42.45;14.63;;;;;;;38.11;31.09;97476.16;4922605;29;20055;-67
2022/06/05 04:08:08;;;;;;;44.00;15.27;;;;;;;38.16;26.14;97485.09;4922663;29;20618;-67
2022/06/05 04:10:58;;;;;;;41.97;13.40;;;;;;;38.19;27.95;97481.91;4922045;29;20110;-67
2022/06/05 04:13:47;;;;;;;55.47;13.65;;;;;;;38.50;31.61;97484.97;4917749;29;20063;-69
2022/06/05 04:16:39;;;;;;;35.63;11.00;;;;;;;38.58;29.39;97481.81;4912722;29;20098;-69
2022/06/05 04:19:28;;;;;;;42.78;10.20;;;;;;;38.32;27.51;97479.88;4918125;29;20043;-67
2022/06/05 04:22:10;;;;;;;34.25;10.68;;;;;;;38.61;28.94;97490.22;4910277;29;20155;-69
2022/06/05 04:24:59;;;;;;;40.35;9.63;;;;;;;38.96;26.31;97489.72;4917635;29;20111;-68
2022/06/05 04:27:41;;;;;;;35.55;10.30;;;;;;;39.18;29.38;97483.47;4913266;29;20055;-68
2022/06/05 04:30:29;;;;;;;42.30;9.18;;;;;;;39.30;30.95;97487.56;4917112;29;20056;-68
2022/06/05 04:33:13;;;;;;;50.67;11.57;;;;;;;39.57;30.35;97484.00;4920148;29;20058;-68
2022/06/05 04:36:07;;;;;;;44.13;10.32;;;;;;;39.62;26.57;97492.13;4914617;28;20059;-68
2022/06/05 04:39:04;;;;;;;30.13;9.38;;;;;;;39.52;26.80;97495.56;4896418;29;20076;-68
2022/06/05 04:41:41;;;;;;;31.63;9.18;;;;;;;39.76;28.02;97485.19;4896558;29;20160;-67
2022/06/05 04:44:29;;;;;;;;;;;;;;;39.77;27.43;97484.09;4892156;29;20147;-67
2022/06/05 04:47:12;;;;;;;39.15;8.90;;;;;;;39.44;24.14;97485.25;4894857;29;20116;-69
2022/06/05 04:50:01;;;;;;;33.33;8.88;;;;;;;39.80;28.04;97480.91;4896763;29;20401;-69
2022/06/05 04:52:50;;;;;;;44.15;9.20;;;;;;;40.05;27.36;97491.03;4897215;29;20112;-67
2022/06/05 04:55:39;;;;;;;37.50;9.32;;;;;;;39.68;27.36;97475.69;4900019;29;20118;-67
2022/06/05 04:58:22;;;;;;;;;;;;;;;40.09;26.90;97481.31;4898449;29;20048;-68
2022/06/05 05:01:16;;;;;;;33.25;8.73;;;;;;;40.28;26.38;97478.97;4896086;29;19931;-68
2022/06/05 05:04:02;;;;;;;44.88;9.35;;;;;;;40.11;24.65;97474.56;4899540;29;20450;-68
2022/06/05 05:06:51;;;;;;;38.22;9.15;;;;;;;40.22;25.69;97470.03;4896485;29;20377;-66
2022/06/05 05:09:33;;;;;;;27.20;8.00;;;;;;;40.37;25.89;97478.19;4896053;29;20055;-68
2022/06/05 05:12:30;;;;;;;39.58;8.45;;;;;;;40.43;27.07;97477.13;4898483;29;20051;-68
2022/06/05 05:15:06;;;;;;;35.70;7.88;;;;;;;40.15;22.45;97480.28;4897058;29;20115;-68
2022/06/05 05:17:54;;;;;;;;;;;;;;;40.31;25.55;97473.84;4897066;29;20064;-68
2022/06/05 05:20:42;;;;;;;41.85;7.57;;;;;;;40.46;23.96;97475.78;4895067;29;20051;-69
2022/06/05 05:23:32;;;;;;;32.45;8.75;;;;;;;40.51;22.71;97473.09;4893905;29;20816;-68
2022/06/05 05:26:17;;;;;;;;;;;;;;;40.65;28.05;97468.78;4898002;29;20063;-69
2022/06/05 05:29:06;;;;;;;35.47;6.22;;;;;;;40.61;22.61;97467.69;4891526;29;20014;-69
2022/06/05 05:31:50;;;;;;;25.92;6.78;;;;;;;40.71;24.85;97465.03;4890551;29;20048;-68
2022/06/05 05:34:39;;;;;;;30.55;6.82;;;;;;;40.63;23.50;97467.44;4893664;29;20056;-68
2022/06/05 05:37:35;;;;;;;37.25;7.57;;;;;;;40.57;23.92;97465.78;4899675;29;20068;-68
2022/06/05 05:43:32;;;;;;;37.45;7.18;;;;;;;40.84;24.52;97459.09;4910151;29;20052;-69
2022/06/05 05:46:15;;;;;;;19.33;6.47;;;;;;;40.92;25.57;97457.75;4912553;29;20573;-68
2022/06/05 05:49:05;;;;;;;31.70;6.35;;;;;;;41.14;26.52;97455.59;4900367;29;20163;-69
2022/06/05 05:51:46;;;;;;;23.75;6.40;;;;;;;41.00;24.68;97464.50;4910248;29;20054;-69
2022/06/05 05:54:36;;;;;;;31.08;6.57;;;;;;;41.05;24.52;97462.59;4910256;29;20774;-68
2022/06/05 05:57:25;;;;;;;24.10;6.15;;;;;;;41.14;24.06;97458.31;4910061;29;20079;-68
2022/06/05 06:00:16;;;;;;;32.67;6.07;;;;;;;41.03;25.06;97453.16;4910087;29;20123;-69
2022/06/05 06:02:58;;;;;;;25.20;5.85;;;;;;;40.95;24.35;97448.31;4910442;29;20135;-69
2022/06/05 06:05:47;;;;;;;22.85;5.47;;;;;;;40.94;22.83;97452.09;4916720;29;20051;-69
2022/06/05 06:08:30;;;;;;;23.23;6.47;;;;;;;41.13;23.67;97447.75;4910092;29;20127;-69
2022/06/05 06:11:19;;;;;;;22.83;5.28;;;;;;;41.07;26.09;97448.81;4909392;29;20060;-69
2022/06/05 06:14:01;;;;;;;23.03;5.87;;;;;;;41.04;27.53;97443.94;4921572;29;20148;-68
2022/06/05 06:16:50;;;;;;;32.40;6.18;;;;;;;40.96;28.03;97442.59;4899147;29;20063;-68
2022/06/05 06:19:32;;;;;;;27.73;5.67;;;;;;;41.05;23.66;97451.78;4912061;29;20063;-69
2022/06/05 06:22:21;;;;;;;23.55;6.20;;;;;;;41.14;24.57;97444.78;4917367;29;20345;-68
2022/06/05 06:25:05;;;;;;;26.13;6.20;;;;;;;41.07;24.31;97438.81;4918522;29;20048;-69
2022/06/05 06:27:55;;;;;;;27.67;6.28;;;;;;;40.85;25.09;97435.59;4918951;29;20055;-69
2022/06/05 06:30:37;;;;;;;30.70;5.40;;;;;;;40.93;24.18;97436.94;4915940;29;20139;-68
2022/06/05 06:33:21;;;;;;;34.97;5.45;;;;;;;41.01;20.61;97433.69;4916321;29;20040;-69
2022/06/05 06:36:12;;;;;;;18.23;4.57;;;;;;;40.78;22.63;97425.06;4921508;29;20075;-69
2022/06/05 06:39:14;;;;;;;17.45;4.03;;;;;;;40.85;24.95;97427.50;4914829;28;20138;-69
2022/06/05 06:42:03;;;;;;;21.27;4.60;;;;;;;40.69;22.33;97428.56;4909313;29;20115;-69
2022/06/05 06:45:03;;;;;;;25.13;4.82;;;;;;;40.78;24.84;97418.84;4903235;29;20058;-68
2022/06/05 06:47:38;;;;;;;16.88;4.40;;;;;;;40.92;25.39;97417.22;4910809;29;20576;-70
2022/06/05 06:50:26;;;;;;;33.13;4.47;;;;;;;40.98;19.84;97420.72;4907526;29;20048;-68
2022/06/05 06:53:09;;;;;;;26.35;5.30;;;;;;;40.99;20.10;97420.44;4917645;29;20303;-68
2022/06/05 06:55:58;;;;;;;23.95;4.57;;;;;;;41.07;27.73;97413.66;4916771;29;20047;-68
2022/06/05 06:58:40;;;;;;;23.75;4.82;;;;;;;41.03;23.52;97416.09;4911380;29;20051;-68
2022/06/05 07:01:36;;;;;;;21.55;4.05;;;;;;;40.73;17.77;97408.84;4920687;29;20063;-68
2022/06/05 07:04:11;;;;;;;21.40;4.10;;;;;;;40.97;24.48;97403.69;4914697;29;20104;-68
2022/06/05 07:07:00;;;;;;;23.17;5.00;;;;;;;40.97;24.06;97402.88;4913043;29;20059;-68
2022/06/05 07:09:50;;;;;;;34.83;5.40;;;;;;;40.92;21.87;97397.47;4915195;29;20052;-68
2022/06/05 07:12:34;;;;;;;23.65;4.50;;;;;;;40.79;23.51;97382.63;4902936;29;20055;-67
2022/06/05 07:15:23;;;;;;;22.02;5.18;;;;;;;40.85;23.31;97393.16;4908581;29;20267;-67
2022/06/05 07:18:19;;;;;;;34.45;4.93;;;;;;;40.78;24.97;97386.41;4920964;29;20131;-68
2022/06/05 07:20:54;;;;;;;24.48;4.82;;;;;;;40.81;22.71;97383.16;4908859;29;20059;-67
2022/06/05 07:23:43;;;;;;;24.40;5.43;;;;;;;40.90;21.77;97378.81;4908588;29;20370;-66
2022/06/05 07:26:29;;;;;;;42.83;5.72;;;;;;;40.93;21.84;97377.47;4911708;29;20321;-66
2022/06/05 07:29:24;;;;;;;29.33;5.53;;;;;;;40.88;23.13;97370.19;4909810;29;20472;-69
2022/06/05 07:31:59;;;;;;;23.48;4.38;;;;;;;40.81;24.31;97369.66;4915345;29;20087;-68
2022/06/05 07:34:55;;;;;;;;;;;;;;;40.81;23.00;97369.66;4918033;29;20052;-70
2022/06/05 07:37:52;;;;;;;20.60;4.47;;;;;;;40.78;23.23;97364.81;4913968;29;20259;-68
2022/06/05 07:40:51;;;;;;;20.95;4.13;;;;;;;40.75;20.61;97362.63;4895389;29;20059;-69
2022/06/05 07:43:32;;;;;;;18.63;4.23;;;;;;;40.68;25.53;97352.09;4892226;29;20055;-68
2022/06/05 07:46:30;;;;;;;26.00;5.03;;;;;;;40.68;25.67;97356.69;4896363;29;20131;-67
2022/06/05 07:49:06;;;;;;;18.88;4.53;;;;;;;40.58;22.92;97354.78;4880657;29;20053;-68
2022/06/05 07:55:00;;;;;;;21.50;4.93;;;;;;;40.55;21.85;97357.22;4882310;29;19953;-68
2022/06/05 07:57:55;;;;;;;16.55;4.35;;;;;;;40.53;21.68;97352.91;4896922;29;20087;-69
2022/06/05 08:00:51;;;;;;;21.77;4.32;;;;;;;40.55;25.55;97343.72;4894639;29;20048;-70
2022/06/05 08:03:26;;;;;;;21.65;4.22;;;;;;;40.53;21.78;97347.50;4893170;29;20297;-67
2022/06/05 08:06:15;;;;;;;15.00;2.97;;;;;;;40.49;21.56;97341.00;4891673;29;20186;-68
2022/06/05 08:08:59;;;;;;;21.98;3.97;;;;;;;40.54;22.63;97334.81;4893240;29;20060;-67
2022/06/05 08:11:48;;;;;;;20.30;3.53;;;;;;;40.50;20.96;97334.53;4895772;29;20127;-69
2022/06/05 08:14:35;;;;;;;15.23;4.03;;;;;;;40.50;20.99;97333.72;4890459;29;20117;-67
2022/06/05 08:17:26;;;;;;;24.63;4.18;;;;;;;40.42;21.34;97329.66;4886546;29;20048;-69
2022/06/05 08:20:10;;;;;;;13.35;4.38;;;;;;;40.32;24.66;97324.25;4885338;29;20063;-67
2022/06/05 08:23:04;;;;;;;18.48;3.95;;;;;;;40.21;19.66;97317.22;4886720;29;20060;-69
2022/06/05 08:25:40;;;;;;;10.55;3.78;;;;;;;40.16;20.99;97309.09;4887423;29;20044;-68
2022/06/05 08:28:29;;;;;;;;;;;;;;;40.03;20.47;97310.44;4891535;29;20421;-68
2022/06/05 08:31:12;;;;;;;25.73;5.47;;;;;;;40.09;20.47;97309.38;4898899;29;20417;-69
2022/06/05 08:34:04;;;;;;;13.30;4.68;;;;;;;40.08;18.28;97305.03;4892596;29;20052;-69
2022/06/05 08:41:26;;;;;;;14.27;3.47;;;;;;;40.08;17.57;97302.34;4894102;29;20052;-70
2022/06/05 08:43:23;;;;;;;19.65;4.10;;;;;;;40.31;22.29;97292.94;4895060;29;20416;-69
2022/06/05 08:46:20;;;;;;;24.65;4.47;;;;;;;40.28;21.29;97285.38;4896394;29;20506;-69
2022/06/05 08:49:15;;;;;;;25.63;3.58;;;;;;;40.21;23.70;97284.81;4894476;29;20139;-68
2022/06/05 08:52:05;;;;;;;20.35;3.90;;;;;;;40.10;21.84;97281.31;4890211;29;20180;-68
2022/06/05 08:55:03;;;;;;;22.25;4.90;;;;;;;40.08;20.93;97282.63;4890956;29;20056;-67
2022/06/05 08:58:32;;;;;;;25.58;5.13;;;;;;;40.00;20.61;97277.78;4889488;29;20060;-70
2022/06/05 09:01:41;;;;;;;16.42;4.20;;;;;;;39.89;23.21;97265.38;4888310;29;20071;-68
2022/06/05 09:04:44;;;;;;;15.90;3.53;;;;;;;39.89;18.55;97265.38;4889834;29;20390;-70
2022/06/05 09:07:42;;;;;;;15.75;2.92;;;;;;;39.79;19.85;97266.13;4891145;29;20222;-72
2022/06/05 09:10:40;;;;;;;20.88;4.25;;;;;;;39.77;23.26;97263.69;4888354;29;20060;-68
2022/06/05 09:13:47;;;;;;;24.70;4.35;;;;;;;39.82;22.15;97251.34;4888802;29;20220;-71
2022/06/05 09:16:41;;;;;;;12.93;3.88;;;;;;;39.92;20.13;97254.03;4888617;29;20477;-71
2022/06/05 09:19:34;;;;;;;12.73;3.83;;;;;;;39.89;21.51;97254.56;4888297;29;20135;-71
2022/06/05 09:22:19;;;;;;;18.50;4.40;;;;;;;39.82;22.02;97251.34;4872033;29;20143;-68
2022/06/05 09:25:12;;;;;;;22.58;4.13;;;;;;;39.86;21.18;97252.41;4888994;29;20075;-70
2022/06/05 09:28:35;;;;;;;27.13;4.68;;;;;;;39.91;21.83;97249.72;4890616;29;20048;-69
2022/06/05 09:31:58;;;;;;;25.13;3.95;;;;;;;39.85;23.13;97248.09;4894137;29;20498;-73
2022/06/05 09:34:40;;;;;;;19.05;3.50;;;;;;;39.79;24.50;97239.97;4894045;29;20554;-75
2022/06/05 09:37:40;;;;;;;12.60;3.70;;;;;;;39.74;22.57;97242.66;4885321;29;20124;-69
2022/06/05 09:40:34;;;;;;;26.00;4.38;;;;;;;39.78;22.06;97242.94;4905437;29;20597;-71
2022/06/05 09:43:39;;;;;;;16.80;4.38;;;;;;;39.70;23.95;97238.06;4886008;29;20081;-70
2022/06/05 09:46:49;;;;;;;20.23;3.85;;;;;;;39.69;20.17;97236.44;4890891;29;20133;-72
2022/06/05 09:49:51;;;;;;;24.25;4.00;;;;;;;39.71;20.10;97235.09;4887960;29;20136;-73
2022/06/05 09:52:40;;;;;;;12.90;3.83;;;;;;;39.65;21.82;97236.19;4892553;29;20068;-71
2022/06/05 09:55:35;;;;;;;;;;;;;;;39.68;21.03;97238.31;4896607;29;20332;-76
2022/06/05 09:58:32;;;;;;;23.33;4.20;;;;;;;39.82;20.06;97232.44;4897309;29;19935;-73
2022/06/05 10:01:30;;;;;;;17.23;4.70;;;;;;;39.77;20.25;97225.94;4898209;29;20051;-70
2022/06/05 10:04:19;;;;;;;24.90;4.03;;;;;;;39.89;20.09;97231.09;4896401;29;20045;-72
2022/06/05 10:07:28;;;;;;;20.88;4.20;;;;;;;39.89;21.22;97217.63;4876883;29;20048;-74
2022/06/05 10:10:29;;;;;;;21.17;4.50;;;;;;;39.73;22.51;97213.25;4893224;29;20840;-74
2022/06/05 10:13:38;;;;;;;20.15;3.67;;;;;;;39.53;22.12;97200.53;4893266;29;20075;-72
2022/06/05 10:16:53;;;;;;;24.73;4.53;;;;;;;39.49;21.05;97206.75;4893923;29;20111;-70
2022/06/05 10:20:20;;;;;;;16.55;3.30;;;;;;;39.31;22.42;97202.63;4900377;29;20349;-75
2022/06/05 10:23:25;;;;;;;25.50;4.70;;;;;;;39.25;23.74;97201.81;4867480;29;20041;-75
2022/06/05 10:26:20;;;;;;;22.90;4.03;;;;;;;39.18;22.33;97197.75;4898753;29;20048;-73
2022/06/05 10:29:35;;;;;;;16.60;3.97;;;;;;;39.11;19.06;97205.28;4899399;29;20048;-72
2022/06/05 10:32:40;;;;;;;14.60;3.58;;;;;;;39.27;21.75;97198.88;4892163;29;20452;-73
2022/06/05 10:35:34;;;;;;;17.73;3.95;;;;;;;39.11;22.43;97195.31;4891305;29;20040;-74
2022/06/05 10:38:59;;;;;;;16.92;3.53;;;;;;;39.37;19.45;97193.47;4892725;29;20111;-73
2022/06/05 10:42:08;;;;;;;13.18;3.63;;;;;;;39.23;21.91;97197.75;4895031;29;20063;-71
2022/06/05 10:45:15;;;;;;;19.67;3.95;;;;;;;39.19;22.68;97194.81;4893477;29;20123;-72
2022/06/05 10:48:03;;;;;;;21.35;4.25;;;;;;;39.13;23.01;97190.44;4894193;29;20059;-71
2022/06/05 10:51:01;;;;;;;13.95;4.20;;;;;;;39.07;22.38;97188.81;4893026;29;20200;-73
2022/06/05 10:53:58;;;;;;;20.60;4.28;;;;;;;38.95;23.35;97172.88;4887543;29;20143;-72
2022/06/05 10:56:52;;;;;;;16.30;3.45;;;;;;;38.96;21.79;97181.75;4874117;29;20825;-70
2022/06/05 11:00:11;;;;;;;14.15;3.60;;;;;;;39.28;20.42;97185.09;4889092;29;20124;-71
2022/06/05 11:03:05;;;;;;;17.63;4.60;;;;;;;39.16;21.44;97187.22;4888887;29;20040;-73
2022/06/05 11:06:18;;;;;;;19.60;4.00;;;;;;;39.08;21.92;97176.16;4885258;29;20625;-73
2022/06/05 11:09:44;;;;;;;33.03;4.67;;;;;;;39.25;20.25;97179.44;4888432;29;20128;-72
2022/06/05 11:15:54;;;;;;;16.40;3.83;;;;;;;39.31;19.68;97179.19;4888144;29;20866;-72
2022/06/05 11:19:21;;;;;;;14.40;4.35;;;;;;;39.24;19.26;97175.94;4888574;29;20128;-73
2022/06/05 11:22:09;;;;;;;16.00;4.28;;;;;;;39.15;22.21;97171.31;4888319;29;20053;-72
2022/06/05 11:25:04;;;;;;;20.17;4.10;;;;;;;39.19;20.17;97180.50;4889501;29;20056;-74
2022/06/05 11:27:53;;;;;;;27.42;4.65;;;;;;;39.02;22.44;97170.75;4896758;29;20049;-72
2022/06/05 11:31:18;;;;;;;20.67;4.03;;;;;;;38.86;23.21;97158.28;4895752;29;20733;-73
2022/06/05 11:34:19;;;;;;;18.52;3.88;;;;;;;38.89;21.75;97165.81;4889064;29;20484;-73
2022/06/05 11:37:06;;;;;;;10.57;3.80;;;;;;;38.77;22.02;97165.25;4888341;29;20143;-70
2022/06/05 11:40:20;;;;;;;20.50;3.70;;;;;;;38.73;22.43;97160.63;4888436;29;20071;-70
2022/06/05 11:43:41;;;;;;;16.02;3.63;;;;;;;38.55;23.21;97164.63;4898858;29;20210;-68
2022/06/05 11:47:06;;;;;;;21.15;4.75;;;;;;;38.46;22.72;97152.69;4892512;29;20605;-69
2022/06/05 11:50:09;;;;;;;14.25;4.28;;;;;;;38.37;22.18;97162.31;4908584;29;20099;-70
2022/06/05 11:53:00;;;;;;;15.48;3.88;;;;;;;38.25;21.79;97159.81;4909186;29;20123;-71
2022/06/05 11:56:05;;;;;;;15.85;4.45;;;;;;;37.94;26.53;97158.78;4908891;29;20048;-70
2022/06/05 11:59:18;;;;;;;14.55;3.30;;;;;;;37.72;28.16;97155.38;4910158;29;20059;-71
2022/06/05 12:02:12;;;;;;;22.80;4.25;;;;;;;37.50;27.51;97153.56;4871918;29;20959;-68
2022/06/05 12:05:18;;;;;;;17.17;4.30;;;;;;;37.51;23.40;97160.56;4905481;29;20060;-69
2022/06/05 12:08:09;;;;;;;14.82;3.88;;;;;;;37.36;27.12;97157.72;4908034;29;20082;-70
2022/06/05 12:10:59;;;;;;;10.43;3.38;;;;;;;37.29;27.58;97162.47;4893470;29;20077;-71
2022/06/05 12:14:02;;;;;;;14.00;3.85;;;;;;;37.00;29.30;97150.34;4903283;29;20128;-70
2022/06/05 12:17:13;;;;;;;14.88;3.88;;;;;;;36.78;27.29;97156.53;4888949;29;20127;-70
2022/06/05 12:20:31;;;;;;;14.60;4.38;;;;;;;36.56;28.74;97152.97;4903828;29;20048;-70
2022/06/05 12:23:36;;;;;;;22.30;6.80;;;;;;;36.41;31.33;97161.66;4872218;29;20134;-70
2022/06/05 12:26:45;;;;;;;25.33;6.18;;;;;;;36.25;31.10;97161.69;4903317;29;20070;-71
2022/06/05 12:29:30;;;;;;;29.92;6.78;;;;;;;36.09;32.11;97154.44;4904718;29;20048;-70
2022/06/05 12:32:56;;;;;;;30.95;6.32;;;;;;;35.94;31.03;97161.22;4907900;29;20059;-73
2022/06/05 12:35:50;;;;;;;26.40;6.70;;;;;;;35.91;31.92;97159.03;4905211;29;20526;-69
2022/06/05 12:38:38;;;;;;;24.17;5.38;;;;;;;36.06;29.07;97169.19;4908872;29;20054;-69
2022/06/05 12:41:33;;;;;;;30.58;6.80;;;;;;;36.15;27.24;97170.38;4911781;29;20131;-72
2022/06/05 12:44:32;;;;;;;31.10;7.50;;;;;;;36.14;29.13;97159.91;4904761;29;20054;-73
2022/06/05 12:48:01;;;;;;;23.58;6.20;;;;;;;36.03;31.37;97157.06;4923075;29;20432;-68
2022/06/05 12:51:12;;;;;;;25.92;5.28;;;;;;;36.00;30.30;97162.91;4564146;29;10000016;-69
2022/06/05 12:54:08;;;;;;;19.83;5.03;;;;;;;35.92;30.96;97163.31;4926827;28;20812;-66
2022/06/05 12:56:56;;;;;;;17.58;3.53;;;;;;;35.84;30.54;97162.94;4924651;29;20139;-67
2022/06/05 12:59:59;;;;;;;16.98;4.32;;;;;;;35.72;31.27;97163.00;4918499;29;20071;-65
2022/06/05 13:02:54;;;;;;;17.13;4.20;;;;;;;35.61;31.59;97164.66;4922767;29;20151;-67
2022/06/05 13:05:52;;;;;;;15.00;4.70;;;;;;;35.54;34.44;97166.69;4920806;29;20648;-66
2022/06/05 13:09:06;;;;;;;28.10;5.13;;;;;;;35.34;39.31;97160.97;4921184;29;20130;-67
2022/06/05 13:12:12;;;;;;;24.95;5.57;;;;;;;35.20;39.28;97156.94;4932105;29;20504;-68
2022/06/05 13:15:25;;;;;;;19.75;5.05;;;;;;;35.01;36.30;97161.66;4912579;29;20110;-67
2022/06/05 13:18:49;;;;;;;25.70;6.85;;;;;;;34.88;39.15;97161.97;4921322;28;20109;-68
2022/06/05 13:21:57;;;;;;;40.20;6.45;;;;;;;34.71;37.74;97155.69;4921256;29;20059;-70
2022/06/05 13:25:13;;;;;;;38.35;8.43;;;;;;;34.64;39.35;97161.19;4919820;29;20118;-71
2022/06/05 13:28:13;;;;;;;27.48;5.00;;;;;;;34.55;34.46;97168.75;4921681;29;20051;-70
2022/06/05 13:31:02;;;;;;;29.30;7.18;;;;;;;34.48;38.17;97168.03;4917519;29;20051;-70
2022/06/05 13:34:23;;;;;;;28.08;6.40;;;;;;;34.40;38.09;97172.97;4919420;29;20150;-70
2022/06/05 13:37:43;;;;;;;38.13;7.50;;;;;;;34.29;40.12;97169.25;4921559;29;20055;-70
2022/06/05 13:41:01;;;;;;;35.90;7.15;;;;;;;34.17;40.76;97168.38;4922276;29;20190;-69
2022/06/05 13:43:48;;;;;;;44.28;8.25;;;;;;;34.06;42.05;97170.03;4923031;29;20063;-69
2022/06/05 13:47:18;;;;;;;32.50;7.20;;;;;;;33.98;44.01;97173.03;4919800;29;20064;-73
2022/06/05 13:50:41;;;;;;;36.15;6.97;;;;;;;33.85;43.15;97177.78;4913358;29;20274;-71